This is the latest recevied weather packets stored in our database for station/object K8BCO. If no packets are shown the sender has not sent any weather packets the latest 10 day(s).
| Time | Temp. | Humidity | Pressure | Rain* | Wind** | Luminosity | Snow |
|---|---|---|---|---|---|---|---|
| 1777989919 | 2.78° C | 84% | 1004.2 hPa | 0 mm | - | 285 W/m² | - |
| 1777989317 | 3.89° C | 76% | 1004.2 hPa | 0 mm | - | 181 W/m² | - |
| 1777988718 | 5° C | 68% | 1003.7 hPa | 0 mm | - | 218 W/m² | - |
| 1777988116 | 5° C | 66% | 1003.5 hPa | 0 mm | - | 201 W/m² | - |
| 1777987516 | 5° C | 64% | 1003.4 hPa | 0 mm | - | 153 W/m² | - |
| 1777986916 | 5° C | 65% | 1003.2 hPa | 0 mm | - | 252 W/m² | - |
| 1777986319 | 5° C | 66% | 1003.2 hPa | 0 mm | - | 167 W/m² | - |
| 1777985720 | 4.44° C | 68% | 1003.2 hPa | 0 mm | - | 178 W/m² | - |
| 1777985120 | 4.44° C | 71% | 1003.2 hPa | 0 mm | - | 153 W/m² | - |
| 1777984517 | 3.89° C | 72% | 1003.2 hPa | 0 mm | - | 127 W/m² | - |
| 1777983920 | 3.89° C | 72% | 1003.1 hPa | 0 mm | - | 84 W/m² | - |
| 1777983317 | 3.33° C | 73% | 1003.1 hPa | 0 mm | - | 91 W/m² | - |
| 1777982717 | 3.33° C | 75% | 1003 hPa | 0 mm | - | 92 W/m² | - |
| 1777982118 | 2.78° C | 75% | 1002.9 hPa | 0 mm | - | 69 W/m² | - |
| 1777981521 | 2.78° C | 75% | 1002.8 hPa | 0 mm | - | 34 W/m² | - |
| 1777980919 | 2.78° C | 76% | 1002.8 hPa | 0 mm | - | 29 W/m² | - |
| 1777980318 | 2.22° C | 75% | 1002.6 hPa | 0 mm | - | 26 W/m² | - |
| 1777979718 | 2.22° C | 77% | 1002.5 hPa | 0 mm | - | 18 W/m² | - |
| 1777979118 | 2.22° C | 77% | 1002.3 hPa | 0 mm | - | 20 W/m² | - |
| 1777978520 | 1.67° C | 77% | 1002.2 hPa | 0 mm | - | 10 W/m² | - |
| 1777977922 | 1.67° C | 80% | 1002.1 hPa | 0 mm | - | 5 W/m² | - |
| 1777977321 | 1.11° C | 79% | 1002 hPa | 0 mm | - | 3 W/m² | - |
| 1777976718 | 0.56° C | 81% | 1002 hPa | 0 mm | - | 1 W/m² | - |
| 1777976122 | 0.56° C | 81% | 1001.8 hPa | 0 mm | - | 0 W/m² | - |
| 1777975519 | 0.56° C | 81% | 1001.7 hPa | 0 mm | - | 0 W/m² | - |
* Rain latest hour (hover to see other rain measurements)
** Current wind speed in m/s (hover to see current wind gust speed)